Map

Track Data

SID SEASON NUMBER BASIN SUBBASIN NAME ISO_TIME NATURE LAT LON WMO_WIND WMO_PRES WMO_AGENCY TRACK_TYPE DIST2LAND LANDFALL IFLAG USA_AGENCY USA_ATCF_ID USA_LAT USA_LON USA_RECORD USA_STATUS USA_WIND USA_PRES USA_SSHS USA_R34_NE USA_R34_SE USA_R34_SW USA_R34_NW USA_R50_NE USA_R50_SE USA_R50_SW USA_R50_NW USA_R64_NE USA_R64_SE USA_R64_SW USA_R64_NW USA_POCI USA_ROCI USA_RMW USA_EYE TOKYO_LAT TOKYO_LON TOKYO_GRADE TOKYO_WIND TOKYO_PRES TOKYO_R50_DIR TOKYO_R50_LONG TOKYO_R50_SHORT TOKYO_R30_DIR TOKYO_R30_LONG TOKYO_R30_SHORT TOKYO_LAND CMA_LAT CMA_LON CMA_CAT CMA_WIND CMA_PRES HKO_LAT HKO_LON HKO_CAT HKO_WIND HKO_PRES NEWDELHI_LAT NEWDELHI_LON NEWDELHI_GRADE NEWDELHI_WIND NEWDELHI_PRES NEWDELHI_CI NEWDELHI_DP NEWDELHI_POCI REUNION_LAT REUNION_LON REUNION_TYPE REUNION_WIND REUNION_PRES REUNION_TNUM REUNION_CI REUNION_RMW REUNION_R34_NE REUNION_R34_SE REUNION_R34_SW REUNION_R34_NW REUNION_R50_NE REUNION_R50_SE REUNION_R50_SW REUNION_R50_NW REUNION_R64_NE REUNION_R64_SE REUNION_R64_SW REUNION_R64_NW BOM_LAT BOM_LON BOM_TYPE BOM_WIND BOM_PRES BOM_TNUM BOM_CI BOM_RMW BOM_R34_NE BOM_R34_SE BOM_R34_SW BOM_R34_NW BOM_R50_NE BOM_R50_SE BOM_R50_SW BOM_R50_NW BOM_R64_NE BOM_R64_SE BOM_R64_SW BOM_R64_NW BOM_ROCI BOM_POCI BOM_EYE BOM_POS_METHOD BOM_PRES_METHOD NADI_LAT NADI_LON NADI_CAT NADI_WIND NADI_PRES WELLINGTON_LAT WELLINGTON_LON WELLINGTON_WIND WELLINGTON_PRES DS824_LAT DS824_LON DS824_STAGE DS824_WIND DS824_PRES TD9636_LAT TD9636_LON TD9636_STAGE TD9636_WIND TD9636_PRES TD9635_LAT TD9635_LON TD9635_WIND TD9635_PRES TD9635_ROCI NEUMANN_LAT NEUMANN_LON NEUMANN_CLASS NEUMANN_WIND NEUMANN_PRES MLC_LAT MLC_LON MLC_CLASS MLC_WIND MLC_PRES USA_GUST BOM_GUST BOM_GUST_PER REUNION_GUST REUNION_GUST_PER USA_SEAHGT USA_SEARAD_NE USA_SEARAD_SE USA_SEARAD_SW USA_SEARAD_NW STORM_SPEED STORM_DIR
1882266N23302 1882 32 NA NA NOT_NAMED 1882-09-22 12:00:00 TS 23.0000 -58.0000 main 942 942 _____________O -1 23.0000 -58.0000 TD 25 7 58
1882266N23302 1882 32 NA NA NOT_NAMED 1882-09-22 15:00:00 TS 23.2001 -57.6602 main 980 980 _____________P -1 23.2001 -57.6602 TD 27 8 58
1882266N23302 1882 32 NA NA NOT_NAMED 1882-09-22 18:00:00 TS 23.4000 -57.3000 main 1027 1027 _____________O -1 23.4000 -57.3000 TD 30 8 60
1882266N23302 1882 32 NA NA NOT_NAMED 1882-09-22 21:00:00 TS 23.6000 -56.9074 main 1073 1073 _____________P -1 23.6000 -56.9074 TD 30 8 61
1882266N23302 1882 32 NA NA NOT_NAMED 1882-09-23 00:00:00 TS 23.8000 -56.5000 main 1119 1119 _____________O -1 23.8000 -56.5000 TD 30 9 61
1882266N23302 1882 32 NA NA NOT_NAMED 1882-09-23 03:00:00 TS 24.0075 -56.0925 main 1166 1166 _____________P -1 24.0075 -56.0925 TD 32 8 61
1882266N23302 1882 32 NA NA NOT_NAMED 1882-09-23 06:00:00 TS 24.2000 -55.7000 main 1212 1212 _____________O -1 24.2000 -55.7000 TS 35 9 69
1882266N23302 1882 32 NA NA NOT_NAMED 1882-09-23 09:00:00 TS 24.3200 -55.2155 main 1262 1262 _____________P -1 24.3200 -55.2155 TS 37 7 65
1882266N23302 1882 32 NA NA NOT_NAMED 1882-09-23 12:00:00 TS 24.5000 -55.0000 main 1290 1281 _____________O -1 24.5000 -55.0000 TS 40 6 345
1882266N23302 1882 32 NA NA NOT_NAMED 1882-09-23 15:00:00 TS 24.8703 -55.3716 main 1279 1254 _____________P -1 24.8703 -55.3716 TS 42 12 311
1882266N23302 1882 32 NA NA NOT_NAMED 1882-09-23 18:00:00 TS 25.3000 -56.0000 main 1254 1242 _____________O -1 25.3000 -56.0000 TS 45 12 309
1882266N23302 1882 32 NA NA NOT_NAMED 1882-09-23 21:00:00 TS 25.6490 -56.4411 main 1242 1226 _____________P -1 25.6490 -56.4411 TS 45 11 308
1882266N23302 1882 32 NA NA NOT_NAMED 1882-09-24 00:00:00 TS 26.0000 -57.0000 main 1226 1199 _____________O -1 26.0000 -57.0000 TS 45 15 301
1882266N23302 1882 32 NA NA NOT_NAMED 1882-09-24 03:00:00 TS 26.4005 -57.8472 main 1200 1172 _____________P -1 26.4005 -57.8472 TS 45 18 296
1882266N23302 1882 32 NA NA NOT_NAMED 1882-09-24 06:00:00 TS 26.8000 -58.8000 main 1169 1150 _____________O -1 26.8000 -58.8000 TS 45 18 295
1882266N23302 1882 32 NA NA NOT_NAMED 1882-09-24 09:00:00 TS 27.1647 -59.6804 main 1154 1137 _____________P -1 27.1647 -59.6804 TS 45 17 295
1882266N23302 1882 32 NA NA NOT_NAMED 1882-09-24 12:00:00 TS 27.5000 -60.5000 main 1142 1136 _____________O -1 27.5000 -60.5000 TS 45 15 295
1882266N23302 1882 32 NA NA NOT_NAMED 1882-09-24 15:00:00 TS 27.8068 -61.2232 main 1142 1138 _____________P -1 27.8068 -61.2232 TS 47 14 296
1882266N23302 1882 32 NA NA NOT_NAMED 1882-09-24 18:00:00 TS 28.1000 -61.9000 main 1147 1144 _____________O -1 28.1000 -61.9000 TS 50 13 296
1882266N23302 1882 32 NA NA NOT_NAMED 1882-09-24 21:00:00 TS 28.3995 -62.5930 main 1158 1156 _____________P -1 28.3995 -62.5930 TS 50 14 296
1882266N23302 1882 32 NA NA NOT_NAMED 1882-09-25 00:00:00 TS 28.7000 -63.3000 main 1174 1172 _____________O -1 28.7000 -63.3000 TS 50 14 295
1882266N23302 1882 32 NA NA NOT_NAMED 1882-09-25 03:00:00 TS 29.0073 -64.0501 main 1194 1194 _____________P -1 29.0073 -64.0501 TS 50 14 295
1882266N23302 1882 32 NA NA NOT_NAMED 1882-09-25 06:00:00 TS 29.3000 -64.8000 main 1204 1160 _____________O -1 29.3000 -64.8000 TS 50 15 290
1882266N23302 1882 32 NA NA NOT_NAMED 1882-09-25 09:00:00 TS 29.5131 -65.6125 main 1160 1094 _____________P -1 29.5131 -65.6125 TS 50 13 292
1882266N23302 1882 32 NA NA NOT_NAMED 1882-09-25 12:00:00 TS 29.8000 -66.2000 main 1094 1052 _____________O -1 29.8000 -66.2000 TS 50 10 323
1882266N23302 1882 32 NA NA NOT_NAMED 1882-09-25 15:00:00 TS 30.3119 -66.3134 main 1052 1019 _____________P -1 30.3119 -66.3134 TS 50 11 0
1882266N23302 1882 32 NA NA NOT_NAMED 1882-09-25 18:00:00 TS 30.9000 -66.2000 main 1019 989 _____________O -1 30.9000 -66.2000 TS 50 11 7
1882266N23302 1882 32 NA NA NOT_NAMED 1882-09-25 21:00:00 TS 31.4375 -66.1502 main 989 968 _____________P -1 31.4375 -66.1502 TS 50 10 5
1882266N23302 1882 32 NA NA NOT_NAMED 1882-09-26 00:00:00 TS 31.9000 -66.1000 main 968 952 _____________O -1 31.9000 -66.1000 TS 50 8 3
1882266N23302 1882 32 NA NA NOT_NAMED 1882-09-26 03:00:00 TS 32.2375 -66.0998 main 952 937 _____________P -1 32.2375 -66.0998 TS 50 6 0
1882266N23302 1882 32 NA NA NOT_NAMED 1882-09-26 06:00:00 TS 32.5000 -66.1000 main 937 928 _____________O -1 32.5000 -66.1000 TS 50 5 2
1882266N23302 1882 32 NA NA NOT_NAMED 1882-09-26 09:00:00 TS 32.7424 -66.0872 main 928 919 _____________P -1 32.7424 -66.0872 TS 50 5 10
1882266N23302 1882 32 NA NA NOT_NAMED 1882-09-26 12:00:00 TS 33.0000 -66.0000 main 923 915 _____________O -1 33.0000 -66.0000 TS 50 6 15
1882266N23302 1882 32 NA NA NOT_NAMED 1882-09-26 15:00:00 TS 33.3412 -65.8915 main 920 916 _____________P -1 33.3412 -65.8915 TS 50 8 31
1882266N23302 1882 32 NA NA NOT_NAMED 1882-09-26 18:00:00 TS 33.7000 -65.5000 main 940 940 _____________O -1 33.7000 -65.5000 TS 50 12 56
1882266N23302 1882 32 NA NA NOT_NAMED 1882-09-26 21:00:00 TS 34.0052 -64.7238 main 974 968 _____________P -1 34.0052 -64.7238 TS 50 18 70
1882266N23302 1882 32 NA NA NOT_NAMED 1882-09-27 00:00:00 TS 34.3000 -63.5000 main 1000 1000 _____________O -1 34.3000 -63.5000 TS 50 24 76
1882266N23302 1882 32 NA NA NOT_NAMED 1882-09-27 03:00:00 TS 34.6016 -61.8621 main 1032 1032 _____________P -1 34.6016 -61.8621 TS 50 29 78
1882266N23302 1882 32 NA NA NOT_NAMED 1882-09-27 06:00:00 TS 34.9000 -60.0000 main 1059 1059 _____________O -1 34.9000 -60.0000 TS 50 31 78
1882266N23302 1882 32 NA NA NOT_NAMED 1882-09-27 09:00:00 TS 35.2533 -58.1626 main 1095 1095 _____________P -1 35.2533 -58.1626 TS 50 29 78
1882266N23302 1882 32 NA NA NOT_NAMED 1882-09-27 12:00:00 TS 35.5000 -56.5000 main 1146 1146 _____________O -1 35.5000 -56.5000 TS 50 24 84
1882266N23302 1882 32 NA NA NOT_NAMED 1882-09-27 15:00:00 TS 35.4985 -55.2500 main 1188 1188 _____________P -1 35.4985 -55.2500 TS 50 19 93
1882266N23302 1882 32 NA NA NOT_NAMED 1882-09-27 18:00:00 TS 35.4000 -54.2000 main 1235 1235 _____________O -1 35.4000 -54.2000 TS 50 18 95
1882266N23302 1882 32 NA NA NOT_NAMED 1882-09-27 21:00:00 TS 35.3486 -53.1002 main 1257 1257 _____________P -1 35.3486 -53.1002 TS 50 18 93
1882266N23302 1882 32 NA NA NOT_NAMED 1882-09-28 00:00:00 TS 35.3000 -52.0000 main 1261 1261 _____________O -1 35.3000 -52.0000 TS 50 18 93
1882266N23302 1882 32 NA NA NOT_NAMED 1882-09-28 03:00:00 TS 35.2418 -50.8498 main 1284 1284 _____________P -1 35.2418 -50.8498 TS 50 19 93
1882266N23302 1882 32 NA NA NOT_NAMED 1882-09-28 06:00:00 TS 35.2000 -49.7000 main 1301 1301 _____________O -1 35.2000 -49.7000 TS 50 18 91
1882266N23302 1882 32 NA NA NOT_NAMED 1882-09-28 09:00:00 TS 35.1970 -48.6531 main 1322 1322 _____________P -1 35.1970 -48.6531 TS 50 18 90
1882266N23302 1882 32 NA NA NOT_NAMED 1882-09-28 12:00:00 TS 35.2000 -47.5000 main 1354 1354 _____________O -1 35.2000 -47.5000 TS 50 21 91
1882266N23302 1882 32 NA NA NOT_NAMED 1882-09-28 15:00:00 TS 35.1502 -46.0592 main 1399 1399 _____________P -1 35.1502 -46.0592 TS 47 25 92
1882266N23302 1882 32 NA NA NOT_NAMED 1882-09-28 18:00:00 TS 35.1000 -44.5000 main 1470 1470 _____________O -1 35.1000 -44.5000 TS 45 25 91
1882266N23302 1882 32 NA NA NOT_NAMED 1882-09-28 21:00:00 TS 35.0982 -43.0008 main 1536 1536 _____________P -1 35.0982 -43.0008 TS 45 25 90
1882266N23302 1882 32 NA NA NOT_NAMED 1882-09-29 00:00:00 TS 35.1000 -41.5000 main 1608 1608 _____________O -1 35.1000 -41.5000 TS 45 25 91
1882266N23302 1882 32 NA NA NOT_NAMED 1882-09-29 03:00:00 TS 35.0482 -39.9994 main 1696 1696 _____________P -1 35.0482 -39.9994 TS 45 25 92
1882266N23302 1882 32 NA NA NOT_NAMED 1882-09-29 06:00:00 TS 35.0000 -38.5000 main 1779 1779 _____________O -1 35.0000 -38.5000 TS 45 25 93
1882266N23302 1882 32 NA NA NOT_NAMED 1882-09-29 09:00:00 TS 34.8957 -36.9215 main 1881 1881 _____________P -1 34.8957 -36.9215 TS 45 25 90
1882266N23302 1882 32 NA NA NOT_NAMED 1882-09-29 12:00:00 TS 35.0000 -35.5000 main 1914 1847 _____________O -1 35.0000 -35.5000 TS 45 21 72
1882266N23302 1882 32 NA NA NOT_NAMED 1882-09-29 15:00:00 TS 35.5570 -34.4268 main 1843 1802 _____________P -1 35.5570 -34.4268 TS 45 21 51
1882266N23302 1882 32 NA NA NOT_NAMED 1882-09-29 18:00:00 TS 36.3000 -33.5000 main 1799 1752 _____________O -1 36.3000 -33.5000 TS 45 21 49
1882266N23302 1882 32 NA NA NOT_NAMED 1882-09-29 21:00:00 TS 36.8992 -32.4979 main 1749 1709 _____________P -1 36.8992 -32.4979 TS 45 20 53
1882266N23302 1882 32 NA NA NOT_NAMED 1882-09-30 00:00:00 TS 37.5000 -31.5000 main 1707 1680 _____________O -1 37.5000 -31.5000 TS 45 20 52
1882266N23302 1882 32 NA NA NOT_NAMED 1882-09-30 03:00:00 TS 38.1492 -30.4988 main 1673 1654 _____________P -1 38.1492 -30.4988 TS 45 20 50
1882266N23302 1882 32 NA NA NOT_NAMED 1882-09-30 06:00:00 TS 38.8000 -29.5000 main 1655 1634 _____________O -1 38.8000 -29.5000 TS 45 19 52
1882266N23302 1882 32 NA NA NOT_NAMED 1882-09-30 09:00:00 TS 39.2825 -28.6202 main 1636 1553 _____________P -1 39.2825 -28.6202 TS 45 20 52
1882266N23302 1882 32 NA NA NOT_NAMED 1882-09-30 12:00:00 ET 40.0000 -27.5000 main 1542 1376 _____________O -1 40.0000 -27.5000 EX 45 30 48
1882266N23302 1882 32 NA NA NOT_NAMED 1882-09-30 15:00:00 ET 41.2902 -25.7489 main 1357 1176 _____________P -1 41.2902 -25.7489 EX 45 40 46
1882266N23302 1882 32 NA NA NOT_NAMED 1882-09-30 18:00:00 ET 42.8000 -23.7000 main 1167 1018 _____________O -1 42.8000 -23.7000 EX 45 41 46
1882266N23302 1882 32 NA NA NOT_NAMED 1882-09-30 21:00:00 ET 44.1471 -21.7477 main 1002 882 _____________P -1 44.1471 -21.7477 EX 45 39 46
1882266N23302 1882 32 NA NA NOT_NAMED 1882-10-01 00:00:00 ET 45.5000 -19.8000 main 877 769 _____________O -1 45.5000 -19.8000 EX 45 39 45
1882266N23302 1882 32 NA NA NOT_NAMED 1882-10-01 03:00:00 ET 46.8967 -17.8416 main 756 559 _____________P -1 46.8967 -17.8416 EX 45 39 44
1882266N23302 1882 32 NA NA NOT_NAMED 1882-10-01 06:00:00 ET 48.3000 -15.9000 main 546 352 _____________O -1 48.3000 -15.9000 EX 45 38 43
1882266N23302 1882 32 NA NA NOT_NAMED 1882-10-01 09:00:00 ET 49.6687 -13.9708 main 339 152 _____________P -1 49.6687 -13.9708 EX 45 37 43
1882266N23302 1882 32 NA NA NOT_NAMED 1882-10-01 12:00:00 ET 51.0000 -12.0000 main 141 _____________O -1 51.0000 -12.0000 EX 45 979 36 43

About IBTrACS Database

This database is a web-friendly format of International Best Track Archive for Climate Stewardship (IBTrACS), a global best track data archive curated by NOAA dating back to 1842.

Updated: 2021-10-21